<?xml version='1.0' encoding='UTF-8'?><gpx version="1.1" creator="JPX - https://github.com/jenetics/jpx" xmlns="http://www.topografix.com/GPX/1/1"><trk><trkseg><trkpt lat="44.0486496" lon="12.5862451"><ele>4.0</ele><time>2026-04-19T06:30:20.986Z</time></trkpt><trkpt lat="44.0485556" lon="12.5862079"><ele>4.0</ele><time>2026-04-19T06:30:24.637Z</time></trkpt><trkpt lat="44.0484897" lon="12.5861953"><ele>4.0</ele><time>2026-04-19T06:30:28.685Z</time></trkpt><trkpt lat="44.0484106" lon="12.5862467"><ele>4.0</ele><time>2026-04-19T06:30:29.673Z</time></trkpt><trkpt lat="44.0483566" lon="12.5863081"><ele>4.0</ele><time>2026-04-19T06:30:30.659Z</time></trkpt><trkpt lat="44.0485924" lon="12.5866204"><ele>4.0</ele><time>2026-04-19T06:30:32.631Z</time></trkpt><trkpt lat="44.0486886" lon="12.5866714"><ele>4.0</ele><time>2026-04-19T06:30:34.624Z</time></trkpt><trkpt lat="44.0489508" lon="12.5866111"><ele>4.0</ele><time>2026-04-19T06:30:38.723Z</time></trkpt><trkpt lat="44.0493432" lon="12.586548"><ele>5.0</ele><time>2026-04-19T06:30:46.124Z</time></trkpt><trkpt lat="44.0492459" lon="12.5860473"><ele>6.0</ele><time>2026-04-19T06:30:47.062Z</time></trkpt><trkpt lat="44.0491849" lon="12.5858469"><ele>6.0</ele><time>2026-04-19T06:30:52.327Z</time></trkpt><trkpt lat="44.049139" lon="12.5857689"><ele>6.0</ele><time>2026-04-19T06:30:59.351Z</time></trkpt><trkpt lat="44.0484833" lon="12.5850945"><ele>6.5</ele><time>2026-04-19T06:31:03.804Z</time></trkpt><trkpt lat="44.0481278" lon="12.585008"><ele>7.0</ele><time>2026-04-19T06:31:12.26Z</time></trkpt><trkpt lat="44.0483644" lon="12.5830743"><ele>7.0</ele><time>2026-04-19T06:31:19.36Z</time></trkpt><trkpt lat="44.0480748" lon="12.5830763"><ele>7.0</ele><time>2026-04-19T06:31:26.31Z</time></trkpt><trkpt lat="44.0480053" lon="12.5825704"><ele>7.0</ele><time>2026-04-19T06:31:33.292Z</time></trkpt><trkpt lat="44.0477641" lon="12.5824944"><ele>7.0</ele><time>2026-04-19T06:31:40.38Z</time></trkpt><trkpt lat="44.0472947" lon="12.5817426"><ele>7.0</ele><time>2026-04-19T06:31:47.328Z</time></trkpt><trkpt lat="44.0472228" lon="12.5813434"><ele>7.0</ele><time>2026-04-19T06:31:53.765Z</time></trkpt><trkpt lat="44.047777" lon="12.5809777"><ele>7.0</ele><time>2026-04-19T06:32:02.378Z</time></trkpt><trkpt lat="44.0482305" lon="12.5800052"><ele>5.0</ele><time>2026-04-19T06:32:10.779Z</time></trkpt><trkpt lat="44.0475053" lon="12.5789063"><ele>6.0</ele><time>2026-04-19T06:32:17.862Z</time></trkpt><trkpt lat="44.0467801" lon="12.578466"><ele>10.0</ele><time>2026-04-19T06:32:25.996Z</time></trkpt><trkpt lat="44.0456462" lon="12.5769797"><ele>8.0</ele><time>2026-04-19T06:32:32.287Z</time></trkpt><trkpt lat="44.0456433" lon="12.5759602"><ele>8.0</ele><time>2026-04-19T06:32:38.954Z</time></trkpt><trkpt lat="44.0455032" lon="12.5760859"><ele>8.0</ele><time>2026-04-19T06:32:47.054Z</time></trkpt><trkpt lat="44.0441179" lon="12.574515"><ele>9.0</ele><time>2026-04-19T06:32:54.02Z</time></trkpt><trkpt lat="44.0438472" lon="12.574184"><ele>10.0</ele><time>2026-04-19T06:33:00.787Z</time></trkpt><trkpt lat="44.0432192" lon="12.5734909"><ele>10.0</ele><time>2026-04-19T06:33:09.1Z</time></trkpt><trkpt lat="44.042764" lon="12.5715929"><ele>11.0</ele><time>2026-04-19T06:33:14.873Z</time></trkpt><trkpt lat="44.0427953" lon="12.5711381"><ele>12.0</ele><time>2026-04-19T06:33:23.104Z</time></trkpt><trkpt lat="44.0427804" lon="12.5705546"><ele>10.0</ele><time>2026-04-19T06:33:29.927Z</time></trkpt><trkpt lat="44.0425202" lon="12.5676468"><ele>10.0</ele><time>2026-04-19T06:33:37.098Z</time></trkpt><trkpt lat="44.0420553" lon="12.5640673"><ele>10.0</ele><time>2026-04-19T06:33:43.975Z</time></trkpt><trkpt lat="44.042262" lon="12.5639704"><ele>10.0</ele><time>2026-04-19T06:33:46.096Z</time></trkpt><trkpt lat="44.0434805" lon="12.5621653"><ele>10.0</ele><time>2026-04-19T06:33:55.274Z</time></trkpt><trkpt lat="44.044883" lon="12.5589081"><ele>9.0</ele><time>2026-04-19T06:34:10.063Z</time></trkpt><trkpt lat="44.0452385" lon="12.5573818"><ele>12.0</ele><time>2026-04-19T06:34:17.095Z</time></trkpt><trkpt lat="44.0457733" lon="12.5521259"><ele>12.0</ele><time>2026-04-19T06:34:39.171Z</time></trkpt><trkpt lat="44.045994" lon="12.5520642"><ele>12.0</ele><time>2026-04-19T06:34:46.116Z</time></trkpt><trkpt lat="44.0455382" lon="12.5516772"><ele>23.0</ele><time>2026-04-19T06:34:52.703Z</time></trkpt><trkpt lat="44.0449632" lon="12.5512042"><ele>25.0</ele><time>2026-04-19T06:34:59.953Z</time></trkpt><trkpt lat="44.0445128" lon="12.5507043"><ele>25.0</ele><time>2026-04-19T06:35:06.226Z</time></trkpt><trkpt lat="44.0445253" lon="12.5505158"><ele>25.0</ele><time>2026-04-19T06:35:11.75Z</time></trkpt><trkpt lat="44.0428894" lon="12.5363608"><ele>14.0</ele><time>2026-04-19T06:36:02.014Z</time></trkpt><trkpt lat="44.0419541" lon="12.5348504"><ele>12.0</ele><time>2026-04-19T06:36:25.207Z</time></trkpt><trkpt lat="44.0416754" lon="12.5341885"><ele>13.0</ele><time>2026-04-19T06:36:36.053Z</time></trkpt><trkpt lat="44.0423677" lon="12.5329505"><ele>21.0</ele><time>2026-04-19T06:36:49.949Z</time></trkpt><trkpt lat="44.0407503" lon="12.5261194"><ele>12.0</ele><time>2026-04-19T06:36:56.944Z</time></trkpt><trkpt lat="44.0467134" lon="12.5206894"><ele>18.0</ele><time>2026-04-19T06:37:03.957Z</time></trkpt><trkpt lat="44.0413798" lon="12.5248769"><ele>12.0</ele><time>2026-04-19T06:37:11.183Z</time></trkpt><trkpt lat="44.0425658" lon="12.5210668"><ele>12.0</ele><time>2026-04-19T06:37:26.039Z</time></trkpt><trkpt lat="44.0404289" lon="12.5197544"><ele>12.5</ele><time>2026-04-19T06:37:33.062Z</time></trkpt><trkpt lat="44.0404068" lon="12.5195331"><ele>13.0</ele><time>2026-04-19T06:37:39.963Z</time></trkpt><trkpt lat="44.039665" lon="12.5156385"><ele>15.0</ele><time>2026-04-19T06:37:46.283Z</time></trkpt><trkpt lat="44.0384216" lon="12.5171875"><ele>17.0</ele><time>2026-04-19T06:37:53.081Z</time></trkpt><trkpt lat="44.0391257" lon="12.5156381"><ele>15.0</ele><time>2026-04-19T06:38:00.059Z</time></trkpt><trkpt lat="44.0395554" lon="12.5147783"><ele>15.0</ele><time>2026-04-19T06:38:06.993Z</time></trkpt><trkpt lat="44.0397354" lon="12.5144786"><ele>15.0</ele><time>2026-04-19T06:38:12.74Z</time></trkpt><trkpt lat="44.0385856" lon="12.5114365"><ele>53.0</ele><time>2026-04-19T06:38:21.033Z</time></trkpt><trkpt lat="44.0334489" lon="12.5142276"><ele>76.0</ele><time>2026-04-19T06:38:35.999Z</time></trkpt><trkpt lat="44.0292995" lon="12.5121634"><ele>72.0</ele><time>2026-04-19T06:39:01.784Z</time></trkpt><trkpt lat="44.0288577" lon="12.5119863"><ele>31.0</ele><time>2026-04-19T06:39:03.734Z</time></trkpt><trkpt lat="44.0303043" lon="12.5032613"><ele>90.0</ele><time>2026-04-19T06:39:29.823Z</time></trkpt><trkpt lat="44.0221046" lon="12.5022904"><ele>124.0</ele><time>2026-04-19T06:39:51.953Z</time></trkpt><trkpt lat="44.0183622" lon="12.4975067"><ele>124.0</ele><time>2026-04-19T06:40:35.012Z</time></trkpt><trkpt lat="44.0182052" lon="12.4975162"><ele>124.0</ele><time>2026-04-19T06:40:40.971Z</time></trkpt><trkpt lat="44.016492" lon="12.4943621"><ele>142.0</ele><time>2026-04-19T06:40:57.087Z</time></trkpt><trkpt lat="44.0098469" lon="12.487952"><ele>137.0</ele><time>2026-04-19T06:41:34.114Z</time></trkpt><trkpt lat="44.005618" lon="12.4866267"><ele>136.0</ele><time>2026-04-19T06:41:46.377Z</time></trkpt><trkpt lat="44.0066875" lon="12.4859043"><ele>141.0</ele><time>2026-04-19T06:41:53.086Z</time></trkpt><trkpt lat="44.0059601" lon="12.4848724"><ele>156.0</ele><time>2026-04-19T06:42:01.031Z</time></trkpt><trkpt lat="44.0025706" lon="12.4813398"><ele>192.0</ele><time>2026-04-19T06:42:31.117Z</time></trkpt><trkpt lat="43.9988824" lon="12.4743416"><ele>178.0</ele><time>2026-04-19T06:43:10.938Z</time></trkpt><trkpt lat="43.9969585" lon="12.4723503"><ele>171.0</ele><time>2026-04-19T06:43:24.167Z</time></trkpt><trkpt lat="43.9919687" lon="12.4653822"><ele>176.0</ele><time>2026-04-19T06:43:58.985Z</time></trkpt><trkpt lat="43.987912" lon="12.4628849"><ele>177.0</ele><time>2026-04-19T06:44:21.017Z</time></trkpt><trkpt lat="43.9873009" lon="12.4614168"><ele>185.0</ele><time>2026-04-19T06:44:26.449Z</time></trkpt><trkpt lat="43.9793879" lon="12.4615873"><ele>158.0</ele><time>2026-04-19T06:45:03.97Z</time></trkpt><trkpt lat="43.9774951" lon="12.4735238"><ele>201.0</ele><time>2026-04-19T06:45:10.941Z</time></trkpt><trkpt lat="43.976856" lon="12.4628684"><ele>211.0</ele><time>2026-04-19T06:45:24.088Z</time></trkpt><trkpt lat="43.9760294" lon="12.4632621"><ele>234.0</ele><time>2026-04-19T06:45:38.449Z</time></trkpt><trkpt lat="43.9806887" lon="12.4427334"><ele>231.0</ele><time>2026-04-19T06:47:38.135Z</time></trkpt><trkpt lat="43.9815442" lon="12.4416691"><ele>216.0</ele><time>2026-04-19T06:47:45.342Z</time></trkpt><trkpt lat="43.9820097" lon="12.4407586"><ele>219.0</ele><time>2026-04-19T06:47:53.016Z</time></trkpt><trkpt lat="43.9825286" lon="12.4391224"><ele>230.0</ele><time>2026-04-19T06:47:59.972Z</time></trkpt><trkpt lat="43.9826037" lon="12.4374228"><ele>228.0</ele><time>2026-04-19T06:48:06.951Z</time></trkpt><trkpt lat="43.9817174" lon="12.4303004"><ele>235.5</ele><time>2026-04-19T06:48:13.548Z</time></trkpt><trkpt lat="43.9816652" lon="12.4305794"><ele>243.0</ele><time>2026-04-19T06:48:32.969Z</time></trkpt><trkpt lat="43.9814184" lon="12.4304324"><ele>259.0</ele><time>2026-04-19T06:48:39.915Z</time></trkpt><trkpt lat="43.9786871" lon="12.4298191"><ele>269.0</ele><time>2026-04-19T06:48:47.007Z</time></trkpt><trkpt lat="43.9780537" lon="12.4284045"><ele>208.0</ele><time>2026-04-19T06:49:07.994Z</time></trkpt><trkpt lat="43.9735875" lon="12.4239447"><ele>203.5</ele><time>2026-04-19T06:49:46.351Z</time></trkpt><trkpt lat="43.9733039" lon="12.4241091"><ele>199.0</ele><time>2026-04-19T06:50:07.082Z</time></trkpt><trkpt lat="43.973057" lon="12.4234596"><ele>121.0</ele><time>2026-04-19T06:50:14.087Z</time></trkpt><trkpt lat="43.9723231" lon="12.4120904"><ele>123.0</ele><time>2026-04-19T06:51:24.024Z</time></trkpt><trkpt lat="43.9686648" lon="12.4122613"><ele>124.0</ele><time>2026-04-19T06:52:11.359Z</time></trkpt><trkpt lat="43.9663324" lon="12.4084171"><ele>125.0</ele><time>2026-04-19T06:52:18.012Z</time></trkpt><trkpt lat="43.9648374" lon="12.4051156"><ele>129.0</ele><time>2026-04-19T06:52:39.084Z</time></trkpt><trkpt lat="43.9627994" lon="12.4022879"><ele>135.0</ele><time>2026-04-19T06:52:45.981Z</time></trkpt><trkpt lat="43.9619487" lon="12.4025393"><ele>135.0</ele><time>2026-04-19T06:52:52.131Z</time></trkpt><trkpt lat="43.9617469" lon="12.4026496"><ele>135.0</ele><time>2026-04-19T06:53:00.086Z</time></trkpt><trkpt lat="43.9613775" lon="12.4026515"><ele>140.0</ele><time>2026-04-19T06:53:06.003Z</time></trkpt><trkpt lat="43.9605283" lon="12.4025136"><ele>138.0</ele><time>2026-04-19T06:53:12.97Z</time></trkpt><trkpt lat="43.9592264" lon="12.4024592"><ele>136.0</ele><time>2026-04-19T06:53:21.031Z</time></trkpt><trkpt lat="43.9580459" lon="12.4051495"><ele>136.0</ele><time>2026-04-19T06:53:28.016Z</time></trkpt><trkpt lat="43.9579626" lon="12.4050651"><ele>136.0</ele><time>2026-04-19T06:53:33.869Z</time></trkpt><trkpt lat="43.956806" lon="12.4052607"><ele>135.5</ele><time>2026-04-19T06:53:42.078Z</time></trkpt><trkpt lat="43.9567175" lon="12.4053056"><ele>135.0</ele><time>2026-04-19T06:53:43.897Z</time></trkpt><trkpt lat="43.9550645" lon="12.4047999"><ele>140.0</ele><time>2026-04-19T06:53:52.776Z</time></trkpt><trkpt lat="43.9541096" lon="12.4051712"><ele>144.0</ele><time>2026-04-19T06:54:00.445Z</time></trkpt><trkpt lat="43.9533335" lon="12.4056255"><ele>144.0</ele><time>2026-04-19T06:54:07.01Z</time></trkpt><trkpt lat="43.9523256" lon="12.4059281"><ele>144.0</ele><time>2026-04-19T06:54:14.291Z</time></trkpt><trkpt lat="43.9521696" lon="12.4060266"><ele>144.0</ele><time>2026-04-19T06:54:21.456Z</time></trkpt><trkpt lat="43.9522721" lon="12.4059776"><ele>144.0</ele><time>2026-04-19T06:54:34.624Z</time></trkpt><trkpt lat="43.9523359" lon="12.4060145"><ele>144.0</ele><time>2026-04-19T06:54:45.691Z</time></trkpt><trkpt lat="43.9523635" lon="12.406277"><ele>144.0</ele><time>2026-04-19T06:59:03.163Z</time></trkpt><trkpt lat="43.9526752" lon="12.4056152"><ele>141.0</ele><time>2026-04-19T06:59:18.45Z</time></trkpt><trkpt lat="43.9537821" lon="12.405683"><ele>138.0</ele><time>2026-04-19T06:59:28.052Z</time></trkpt><trkpt lat="43.9545211" lon="12.4055353"><ele>133.0</ele><time>2026-04-19T06:59:36.802Z</time></trkpt><trkpt lat="43.9559564" lon="12.4049618"><ele>136.0</ele><time>2026-04-19T06:59:43.837Z</time></trkpt><trkpt lat="43.9577503" lon="12.405043"><ele>136.0</ele><time>2026-04-19T06:59:51.259Z</time></trkpt><trkpt lat="43.9580388" lon="12.4050715"><ele>136.0</ele><time>2026-04-19T06:59:59.034Z</time></trkpt><trkpt lat="43.9610115" lon="12.4026199"><ele>135.5</ele><time>2026-04-19T07:00:13.077Z</time></trkpt><trkpt lat="43.9610074" lon="12.4024699"><ele>135.0</ele><time>2026-04-19T07:00:20.119Z</time></trkpt><trkpt lat="43.961757" lon="12.4026496"><ele>132.0</ele><time>2026-04-19T07:00:40.525Z</time></trkpt><trkpt lat="43.9594768" lon="12.3975624"><ele>137.0</ele><time>2026-04-19T07:01:24.968Z</time></trkpt><trkpt lat="43.9588107" lon="12.3977232"><ele>137.0</ele><time>2026-04-19T07:01:31.99Z</time></trkpt><trkpt lat="43.9591947" lon="12.3976032"><ele>137.0</ele><time>2026-04-19T07:01:38.986Z</time></trkpt><trkpt lat="43.9568112" lon="12.393494"><ele>137.5</ele><time>2026-04-19T07:01:54.006Z</time></trkpt><trkpt lat="43.957055" lon="12.3931814"><ele>138.0</ele><time>2026-04-19T07:02:00.949Z</time></trkpt><trkpt lat="43.9555871" lon="12.3812434"><ele>151.0</ele><time>2026-04-19T07:02:36.918Z</time></trkpt><trkpt lat="43.9554145" lon="12.3780666"><ele>156.0</ele><time>2026-04-19T07:02:46.031Z</time></trkpt><trkpt lat="43.9548339" lon="12.3762791"><ele>154.0</ele><time>2026-04-19T07:02:51.922Z</time></trkpt><trkpt lat="43.954468" lon="12.3753348"><ele>162.0</ele><time>2026-04-19T07:02:58.863Z</time></trkpt><trkpt lat="43.9538464" lon="12.3739317"><ele>164.0</ele><time>2026-04-19T07:03:02.164Z</time></trkpt><trkpt lat="43.9530107" lon="12.3706536"><ele>165.0</ele><time>2026-04-19T07:03:18.783Z</time></trkpt><trkpt lat="43.9521576" lon="12.3687239"><ele>167.0</ele><time>2026-04-19T07:03:26.606Z</time></trkpt><trkpt lat="43.9498747" lon="12.3652153"><ele>167.0</ele><time>2026-04-19T07:03:40.997Z</time></trkpt><trkpt lat="43.9492628" lon="12.3648373"><ele>162.0</ele><time>2026-04-19T07:03:47.351Z</time></trkpt><trkpt lat="43.9490586" lon="12.3628548"><ele>163.0</ele><time>2026-04-19T07:03:54.057Z</time></trkpt><trkpt lat="43.9478815" lon="12.3622088"><ele>163.0</ele><time>2026-04-19T07:04:01.048Z</time></trkpt><trkpt lat="43.9469846" lon="12.3617804"><ele>158.0</ele><time>2026-04-19T07:04:07.955Z</time></trkpt><trkpt lat="43.9448924" lon="12.3568355"><ele>163.0</ele><time>2026-04-19T07:04:22.475Z</time></trkpt><trkpt lat="43.9395186" lon="12.3527054"><ele>182.0</ele><time>2026-04-19T07:04:28.82Z</time></trkpt><trkpt lat="43.9347328" lon="12.3447743"><ele>182.0</ele><time>2026-04-19T07:05:31.411Z</time></trkpt><trkpt lat="43.9354399" lon="12.3428042"><ele>182.0</ele><time>2026-04-19T07:05:39.05Z</time></trkpt><trkpt lat="43.9356512" lon="12.3427998"><ele>182.0</ele><time>2026-04-19T07:05:42.498Z</time></trkpt><trkpt lat="43.936055" lon="12.3419884"><ele>182.0</ele><time>2026-04-19T07:05:51.125Z</time></trkpt><trkpt lat="43.9340123" lon="12.3340284"><ele>182.0</ele><time>2026-04-19T07:06:04.973Z</time></trkpt><trkpt lat="43.934174" lon="12.3339151"><ele>182.0</ele><time>2026-04-19T07:06:13.037Z</time></trkpt><trkpt lat="43.9340411" lon="12.3339434"><ele>182.0</ele><time>2026-04-19T07:06:20.098Z</time></trkpt><trkpt lat="43.9320899" lon="12.3321792"><ele>195.0</ele><time>2026-04-19T07:06:27.001Z</time></trkpt><trkpt lat="43.9310663" lon="12.3283508"><ele>195.0</ele><time>2026-04-19T07:06:33.99Z</time></trkpt><trkpt lat="43.9308419" lon="12.3273187"><ele>201.0</ele><time>2026-04-19T07:06:48.091Z</time></trkpt><trkpt lat="43.9300893" lon="12.325475"><ele>203.0</ele><time>2026-04-19T07:06:55.076Z</time></trkpt><trkpt lat="43.9291885" lon="12.3231619"><ele>204.0</ele><time>2026-04-19T07:07:02.142Z</time></trkpt><trkpt lat="43.9278122" lon="12.32173"><ele>208.0</ele><time>2026-04-19T07:07:15.121Z</time></trkpt><trkpt lat="43.9268441" lon="12.320673"><ele>211.0</ele><time>2026-04-19T07:07:22.226Z</time></trkpt><trkpt lat="43.9264839" lon="12.3198624"><ele>212.0</ele><time>2026-04-19T07:07:28.25Z</time></trkpt><trkpt lat="43.9255347" lon="12.3185175"><ele>215.0</ele><time>2026-04-19T07:07:36.122Z</time></trkpt><trkpt lat="43.9247203" lon="12.3179236"><ele>213.0</ele><time>2026-04-19T07:07:42.37Z</time></trkpt><trkpt lat="43.9239407" lon="12.3169236"><ele>213.0</ele><time>2026-04-19T07:07:49.132Z</time></trkpt><trkpt lat="43.9237075" lon="12.3168783"><ele>213.0</ele><time>2026-04-19T07:07:56.399Z</time></trkpt><trkpt lat="43.9223376" lon="12.3139583"><ele>213.0</ele><time>2026-04-19T07:08:04.032Z</time></trkpt><trkpt lat="43.9218355" lon="12.3132565"><ele>208.0</ele><time>2026-04-19T07:08:11.08Z</time></trkpt><trkpt lat="43.9214514" lon="12.3128743"><ele>217.0</ele><time>2026-04-19T07:08:18.042Z</time></trkpt><trkpt lat="43.9208404" lon="12.312112"><ele>221.0</ele><time>2026-04-19T07:08:23.854Z</time></trkpt><trkpt lat="43.9189959" lon="12.3099495"><ele>224.0</ele><time>2026-04-19T07:08:31.116Z</time></trkpt><trkpt lat="43.9185092" lon="12.3093003"><ele>226.0</ele><time>2026-04-19T07:08:38.138Z</time></trkpt><trkpt lat="43.917855" lon="12.3081903"><ele>230.0</ele><time>2026-04-19T07:08:44.804Z</time></trkpt><trkpt lat="43.9169241" lon="12.3066487"><ele>228.0</ele><time>2026-04-19T07:08:53.043Z</time></trkpt><trkpt lat="43.9130524" lon="12.3042449"><ele>224.0</ele><time>2026-04-19T07:08:59.989Z</time></trkpt><trkpt lat="43.9084461" lon="12.3009045"><ele>226.0</ele><time>2026-04-19T07:09:33.156Z</time></trkpt><trkpt lat="43.908931" lon="12.3001235"><ele>244.0</ele><time>2026-04-19T07:09:44.544Z</time></trkpt><trkpt lat="43.9087661" lon="12.2951739"><ele>240.0</ele><time>2026-04-19T07:09:54.086Z</time></trkpt><trkpt lat="43.9083195" lon="12.2937488"><ele>240.0</ele><time>2026-04-19T07:10:08.501Z</time></trkpt><trkpt lat="43.9078007" lon="12.2932843"><ele>231.0</ele><time>2026-04-19T07:10:15.313Z</time></trkpt><trkpt lat="43.9055955" lon="12.2941368"><ele>231.0</ele><time>2026-04-19T07:10:23.039Z</time></trkpt><trkpt lat="43.9054322" lon="12.2940288"><ele>231.0</ele><time>2026-04-19T07:10:29.991Z</time></trkpt><trkpt lat="43.9052195" lon="12.2941485"><ele>231.0</ele><time>2026-04-19T07:10:37.035Z</time></trkpt><trkpt lat="43.902952" lon="12.295081"><ele>247.0</ele><time>2026-04-19T07:10:43.277Z</time></trkpt><trkpt lat="43.8999784" lon="12.2931566"><ele>249.0</ele><time>2026-04-19T07:10:58.556Z</time></trkpt><trkpt lat="43.9000078" lon="12.2930195"><ele>251.0</ele><time>2026-04-19T07:11:02.38Z</time></trkpt><trkpt lat="43.9003057" lon="12.2915585"><ele>264.0</ele><time>2026-04-19T07:11:10.305Z</time></trkpt><trkpt lat="43.8998496" lon="12.2904048"><ele>263.0</ele><time>2026-04-19T07:11:16.932Z</time></trkpt><trkpt lat="43.8991951" lon="12.2893232"><ele>263.0</ele><time>2026-04-19T07:11:24.371Z</time></trkpt><trkpt lat="43.8990243" lon="12.2892002"><ele>263.0</ele><time>2026-04-19T07:11:31.574Z</time></trkpt><trkpt lat="43.8984537" lon="12.2888116"><ele>274.0</ele><time>2026-04-19T07:11:37.383Z</time></trkpt><trkpt lat="43.8977191" lon="12.2888826"><ele>278.0</ele><time>2026-04-19T07:11:43.795Z</time></trkpt><trkpt lat="43.8971532" lon="12.2887812"><ele>275.0</ele><time>2026-04-19T07:11:51.288Z</time></trkpt><trkpt lat="43.8964373" lon="12.2881857"><ele>281.0</ele><time>2026-04-19T07:11:58.241Z</time></trkpt><trkpt lat="43.8959338" lon="12.2875593"><ele>279.0</ele><time>2026-04-19T07:12:08.244Z</time></trkpt><trkpt lat="43.8951527" lon="12.2882319"><ele>283.5</ele><time>2026-04-19T07:12:15.482Z</time></trkpt><trkpt lat="43.8948298" lon="12.2884186"><ele>288.0</ele><time>2026-04-19T07:12:22.702Z</time></trkpt><trkpt lat="43.8945591" lon="12.2878486"><ele>288.0</ele><time>2026-04-19T07:12:29.935Z</time></trkpt><trkpt lat="43.8942771" lon="12.288127"><ele>288.0</ele><time>2026-04-19T07:12:39.038Z</time></trkpt><trkpt lat="43.8936834" lon="12.2878141"><ele>311.0</ele><time>2026-04-19T07:12:46.152Z</time></trkpt><trkpt lat="43.8932179" lon="12.2877334"><ele>326.0</ele><time>2026-04-19T07:12:53.081Z</time></trkpt><trkpt lat="43.8922288" lon="12.2872386"><ele>319.0</ele><time>2026-04-19T07:13:00.054Z</time></trkpt><trkpt lat="43.8916554" lon="12.2869216"><ele>319.0</ele><time>2026-04-19T07:13:05.728Z</time></trkpt><trkpt lat="43.8912508" lon="12.2866876"><ele>319.0</ele><time>2026-04-19T07:13:12.731Z</time></trkpt><trkpt lat="43.8952558" lon="12.2824104"><ele>359.0</ele><time>2026-04-19T07:13:29.084Z</time></trkpt><trkpt lat="43.8948738" lon="12.2814755"><ele>359.5</ele><time>2026-04-19T07:13:36.082Z</time></trkpt><trkpt lat="43.8948264" lon="12.2813595"><ele>360.0</ele><time>2026-04-19T07:13:48.737Z</time></trkpt><trkpt lat="43.8967823" lon="12.2749683"><ele>520.0</ele><time>2026-04-19T07:14:38.957Z</time></trkpt><trkpt lat="43.8968966" lon="12.2644758"><ele>520.0</ele><time>2026-04-19T07:15:15.002Z</time></trkpt><trkpt lat="43.8968551" lon="12.2643251"><ele>520.0</ele><time>2026-04-19T07:15:22.075Z</time></trkpt><trkpt lat="43.9019403" lon="12.2561888"><ele>542.0</ele><time>2026-04-19T07:15:35.974Z</time></trkpt><trkpt lat="43.8987317" lon="12.2587884"><ele>579.0</ele><time>2026-04-19T07:15:57.998Z</time></trkpt><trkpt lat="43.900703" lon="12.2545063"><ele>580.0</ele><time>2026-04-19T07:16:27.018Z</time></trkpt><trkpt lat="43.899836" lon="12.2529386"><ele>668.0</ele><time>2026-04-19T07:16:49.016Z</time></trkpt><trkpt lat="43.9025574" lon="12.2461634"><ele>656.0</ele><time>2026-04-19T07:17:46.036Z</time></trkpt><trkpt lat="43.8983684" lon="12.2471051"><ele>713.0</ele><time>2026-04-19T07:18:00.117Z</time></trkpt><trkpt lat="43.8902703" lon="12.2454725"><ele>799.0</ele><time>2026-04-19T07:18:58.066Z</time></trkpt><trkpt lat="43.8702227" lon="12.2319225"><ele>798.0</ele><time>2026-04-19T07:21:20.983Z</time></trkpt><trkpt lat="43.8700537" lon="12.2304522"><ele>798.0</ele><time>2026-04-19T07:21:28.018Z</time></trkpt><trkpt lat="43.8699998" lon="12.2299825"><ele>798.0</ele><time>2026-04-19T07:21:33.726Z</time></trkpt><trkpt lat="43.8699526" lon="12.2295718"><ele>771.0</ele><time>2026-04-19T07:21:41.725Z</time></trkpt><trkpt lat="43.8689301" lon="12.2243017"><ele>618.0</ele><time>2026-04-19T07:21:50.955Z</time></trkpt><trkpt lat="43.8599855" lon="12.2097703"><ele>630.0</ele><time>2026-04-19T07:23:17.979Z</time></trkpt><trkpt lat="43.8636015" lon="12.2139752"><ele>609.0</ele><time>2026-04-19T07:23:41.015Z</time></trkpt><trkpt lat="43.8636295" lon="12.2118366"><ele>606.0</ele><time>2026-04-19T07:24:01.23Z</time></trkpt><trkpt lat="43.8638851" lon="12.2113087"><ele>601.0</ele><time>2026-04-19T07:24:14.938Z</time></trkpt><trkpt lat="43.863749" lon="12.209936"><ele>582.0</ele><time>2026-04-19T07:24:24.132Z</time></trkpt><trkpt lat="43.862801" lon="12.2084223"><ele>582.0</ele><time>2026-04-19T07:24:31.278Z</time></trkpt><trkpt lat="43.8627913" lon="12.2082543"><ele>582.0</ele><time>2026-04-19T07:24:39.145Z</time></trkpt><trkpt lat="43.8627141" lon="12.2072556"><ele>584.0</ele><time>2026-04-19T07:24:45.69Z</time></trkpt><trkpt lat="43.8627002" lon="12.2066735"><ele>586.0</ele><time>2026-04-19T07:24:49.082Z</time></trkpt><trkpt lat="43.8650727" lon="12.2068963"><ele>561.0</ele><time>2026-04-19T07:24:56.045Z</time></trkpt><trkpt lat="43.8617525" lon="12.2045776"><ele>538.0</ele><time>2026-04-19T07:25:04.952Z</time></trkpt><trkpt lat="43.8633825" lon="12.200904"><ele>532.0</ele><time>2026-04-19T07:25:23.903Z</time></trkpt><trkpt lat="43.8627952" lon="12.1998594"><ele>531.0</ele><time>2026-04-19T07:25:31.277Z</time></trkpt><trkpt lat="43.862606" lon="12.199439"><ele>530.0</ele><time>2026-04-19T07:25:37.743Z</time></trkpt><trkpt lat="43.8625194" lon="12.199305"><ele>483.0</ele><time>2026-04-19T07:25:45.732Z</time></trkpt><trkpt lat="43.8628718" lon="12.1919588"><ele>469.0</ele><time>2026-04-19T07:26:10.982Z</time></trkpt><trkpt lat="43.863704" lon="12.1876507"><ele>417.0</ele><time>2026-04-19T07:26:24.324Z</time></trkpt><trkpt lat="43.8672064" lon="12.1814855"><ele>192.0</ele><time>2026-04-19T07:27:16.456Z</time></trkpt><trkpt lat="43.9054786" lon="12.157042"><ele>192.0</ele><time>2026-04-19T07:32:34.103Z</time></trkpt><trkpt lat="43.9056576" lon="12.1566108"><ele>192.0</ele><time>2026-04-19T07:32:43.041Z</time></trkpt><trkpt lat="43.9058204" lon="12.1565014"><ele>208.0</ele><time>2026-04-19T07:32:49.993Z</time></trkpt><trkpt lat="43.9159842" lon="12.1559089"><ele>209.5</ele><time>2026-04-19T07:33:47.998Z</time></trkpt><trkpt lat="43.9161667" lon="12.1555328"><ele>211.0</ele><time>2026-04-19T07:33:54.365Z</time></trkpt><trkpt lat="43.9176094" lon="12.155427"><ele>211.0</ele><time>2026-04-19T07:34:03.067Z</time></trkpt><trkpt lat="43.9176724" lon="12.155185"><ele>211.0</ele><time>2026-04-19T07:34:10.006Z</time></trkpt><trkpt lat="43.9169926" lon="12.1507238"><ele>201.66666666666666</ele><time>2026-04-19T07:34:17.016Z</time></trkpt><trkpt lat="43.9169631" lon="12.150534"><ele>192.33333333333331</ele><time>2026-04-19T07:34:25.096Z</time></trkpt><trkpt lat="43.9171827" lon="12.1505353"><ele>183.0</ele><time>2026-04-19T07:34:32.009Z</time></trkpt><trkpt lat="43.9172147" lon="12.1466905"><ele>233.0</ele><time>2026-04-19T07:34:59.99Z</time></trkpt><trkpt lat="43.9192317" lon="12.1451092"><ele>221.0</ele><time>2026-04-19T07:35:05.847Z</time></trkpt><trkpt lat="43.9216003" lon="12.1468432"><ele>244.0</ele><time>2026-04-19T07:35:32.006Z</time></trkpt><trkpt lat="43.9209957" lon="12.1456334"><ele>244.0</ele><time>2026-04-19T07:35:38.324Z</time></trkpt><trkpt lat="43.9213003" lon="12.1454205"><ele>244.0</ele><time>2026-04-19T07:35:45.048Z</time></trkpt><trkpt lat="43.9211042" lon="12.1450287"><ele>257.0</ele><time>2026-04-19T07:35:51.029Z</time></trkpt><trkpt lat="43.9201294" lon="12.1446747"><ele>233.0</ele><time>2026-04-19T07:35:57.798Z</time></trkpt><trkpt lat="43.9189004" lon="12.1449529"><ele>249.0</ele><time>2026-04-19T07:36:07.905Z</time></trkpt><trkpt lat="43.9176216" lon="12.1431201"><ele>243.5</ele><time>2026-04-19T07:36:17.976Z</time></trkpt><trkpt lat="43.9174458" lon="12.1428347"><ele>238.0</ele><time>2026-04-19T07:36:36.117Z</time></trkpt><trkpt lat="43.9164204" lon="12.1398742"><ele>233.0</ele><time>2026-04-19T07:36:44.017Z</time></trkpt><trkpt lat="43.9157575" lon="12.1386014"><ele>233.0</ele><time>2026-04-19T07:36:50.984Z</time></trkpt><trkpt lat="43.9155877" lon="12.1382648"><ele>233.0</ele><time>2026-04-19T07:36:57.941Z</time></trkpt><trkpt lat="43.914844" lon="12.1350061"><ele>249.0</ele><time>2026-04-19T07:37:06.986Z</time></trkpt><trkpt lat="43.9145557" lon="12.1340967"><ele>251.66666666666669</ele><time>2026-04-19T07:37:14.056Z</time></trkpt><trkpt lat="43.9144176" lon="12.1336611"><ele>254.33333333333334</ele><time>2026-04-19T07:37:36.941Z</time></trkpt><trkpt lat="43.9143917" lon="12.1335796"><ele>257.0</ele><time>2026-04-19T07:37:43.171Z</time></trkpt><trkpt lat="43.911579" lon="12.1277036"><ele>240.0</ele><time>2026-04-19T07:38:05.968Z</time></trkpt><trkpt lat="43.9120873" lon="12.1270783"><ele>253.0</ele><time>2026-04-19T07:38:13.04Z</time></trkpt><trkpt lat="43.9125312" lon="12.1247254"><ele>253.0</ele><time>2026-04-19T07:38:20.975Z</time></trkpt><trkpt lat="43.9124671" lon="12.1245441"><ele>253.0</ele><time>2026-04-19T07:38:27.98Z</time></trkpt><trkpt lat="43.9118077" lon="12.1232806"><ele>271.0</ele><time>2026-04-19T07:38:33.854Z</time></trkpt><trkpt lat="43.9110539" lon="12.1222351"><ele>261.0</ele><time>2026-04-19T07:38:41.22Z</time></trkpt><trkpt lat="43.908883" lon="12.119755"><ele>261.0</ele><time>2026-04-19T07:38:56.012Z</time></trkpt><trkpt lat="43.9089029" lon="12.1190885"><ele>270.0</ele><time>2026-04-19T07:39:02.965Z</time></trkpt><trkpt lat="43.9089524" lon="12.1183732"><ele>271.5</ele><time>2026-04-19T07:39:09.952Z</time></trkpt><trkpt lat="43.9089965" lon="12.1178156"><ele>273.0</ele><time>2026-04-19T07:39:16.085Z</time></trkpt><trkpt lat="43.9090226" lon="12.117491"><ele>276.0</ele><time>2026-04-19T07:39:21.728Z</time></trkpt><trkpt lat="43.9072946" lon="12.1146845"><ele>248.0</ele><time>2026-04-19T07:39:30.036Z</time></trkpt><trkpt lat="43.9032183" lon="12.1145049"><ele>248.0</ele><time>2026-04-19T07:39:50.954Z</time></trkpt><trkpt lat="43.9030344" lon="12.1147972"><ele>248.0</ele><time>2026-04-19T07:39:57.959Z</time></trkpt><trkpt lat="43.9028202" lon="12.1143832"><ele>275.0</ele><time>2026-04-19T07:40:04.966Z</time></trkpt><trkpt lat="43.8995719" lon="12.1018253"><ele>329.0</ele><time>2026-04-19T07:41:07.945Z</time></trkpt><trkpt lat="43.8939832" lon="12.0910868"><ele>337.0</ele><time>2026-04-19T07:42:58.127Z</time></trkpt><trkpt lat="43.8942097" lon="12.0896437"><ele>327.0</ele><time>2026-04-19T07:43:07.093Z</time></trkpt><trkpt lat="43.894011" lon="12.0907542"><ele>341.0</ele><time>2026-04-19T07:43:13.948Z</time></trkpt><trkpt lat="43.8931539" lon="12.0898147"><ele>348.0</ele><time>2026-04-19T07:43:16.438Z</time></trkpt><trkpt lat="43.8920753" lon="12.0874778"><ele>357.0</ele><time>2026-04-19T07:43:25.817Z</time></trkpt><trkpt lat="43.8918788" lon="12.0861306"><ele>350.0</ele><time>2026-04-19T07:43:32.855Z</time></trkpt><trkpt lat="43.8921731" lon="12.0843344"><ele>348.5</ele><time>2026-04-19T07:43:40.996Z</time></trkpt><trkpt lat="43.892222" lon="12.0840392"><ele>347.0</ele><time>2026-04-19T07:43:47.991Z</time></trkpt><trkpt lat="43.8925876" lon="12.0816709"><ele>366.0</ele><time>2026-04-19T07:43:55.049Z</time></trkpt><trkpt lat="43.8922389" lon="12.0797974"><ele>348.0</ele><time>2026-04-19T07:44:03.022Z</time></trkpt><trkpt lat="43.8916386" lon="12.0792451"><ele>359.0</ele><time>2026-04-19T07:44:09.989Z</time></trkpt><trkpt lat="43.891364" lon="12.0790423"><ele>370.0</ele><time>2026-04-19T07:44:15.733Z</time></trkpt><trkpt lat="43.8911812" lon="12.0789647"><ele>322.0</ele><time>2026-04-19T07:44:22.729Z</time></trkpt><trkpt lat="43.8899625" lon="12.0754991"><ele>367.0</ele><time>2026-04-19T07:44:30.949Z</time></trkpt><trkpt lat="43.8917731" lon="12.0479033"><ele>349.0</ele><time>2026-04-19T07:46:21.986Z</time></trkpt><trkpt lat="43.8932968" lon="12.044244"><ele>349.0</ele><time>2026-04-19T07:46:41.895Z</time></trkpt><trkpt lat="43.8855951" lon="12.0231111"><ele>374.0</ele><time>2026-04-19T07:48:42.968Z</time></trkpt><trkpt lat="43.8814042" lon="12.0173857"><ele>374.0</ele><time>2026-04-19T07:49:17.983Z</time></trkpt><trkpt lat="43.8813638" lon="12.0172838"><ele>374.0</ele><time>2026-04-19T07:49:26.003Z</time></trkpt><trkpt lat="43.8813279" lon="12.0171903"><ele>374.0</ele><time>2026-04-19T07:49:32.951Z</time></trkpt><trkpt lat="43.8819572" lon="12.0057128"><ele>436.0</ele><time>2026-04-19T07:50:34.053Z</time></trkpt><trkpt lat="43.8724236" lon="12.0036807"><ele>474.0</ele><time>2026-04-19T07:52:18.961Z</time></trkpt><trkpt lat="43.8663406" lon="11.9769825"><ele>470.0</ele><time>2026-04-19T07:53:36.101Z</time></trkpt><trkpt lat="43.8651656" lon="11.977113"><ele>464.0</ele><time>2026-04-19T07:53:43.207Z</time></trkpt><trkpt lat="43.8643168" lon="11.9773768"><ele>457.0</ele><time>2026-04-19T07:53:49.312Z</time></trkpt><trkpt lat="43.8620673" lon="11.9777331"><ele>457.0</ele><time>2026-04-19T07:54:01.777Z</time></trkpt><trkpt lat="43.8618654" lon="11.9776448"><ele>457.0</ele><time>2026-04-19T07:54:10.076Z</time></trkpt><trkpt lat="43.8609234" lon="11.9772478"><ele>463.0</ele><time>2026-04-19T07:54:17.091Z</time></trkpt><trkpt lat="43.859952" lon="11.9772575"><ele>463.0</ele><time>2026-04-19T07:54:24.147Z</time></trkpt><trkpt lat="43.8596998" lon="11.9771447"><ele>463.0</ele><time>2026-04-19T07:54:30.403Z</time></trkpt><trkpt lat="43.8591004" lon="11.9772385"><ele>466.0</ele><time>2026-04-19T07:54:37.407Z</time></trkpt><trkpt lat="43.8584154" lon="11.9772327"><ele>466.0</ele><time>2026-04-19T07:54:43.902Z</time></trkpt><trkpt lat="43.8577882" lon="11.9771666"><ele>466.0</ele><time>2026-04-19T07:54:51.423Z</time></trkpt><trkpt lat="43.8574892" lon="11.9767736"><ele>466.0</ele><time>2026-04-19T07:54:59.052Z</time></trkpt><trkpt lat="43.8567643" lon="11.9766379"><ele>467.0</ele><time>2026-04-19T07:55:05.222Z</time></trkpt><trkpt lat="43.8558712" lon="11.9765845"><ele>467.0</ele><time>2026-04-19T07:55:11.069Z</time></trkpt><trkpt lat="43.8554304" lon="11.97645"><ele>466.0</ele><time>2026-04-19T07:55:14.332Z</time></trkpt><trkpt lat="43.8544144" lon="11.9760734"><ele>463.0</ele><time>2026-04-19T07:55:22.838Z</time></trkpt><trkpt lat="43.853873" lon="11.9758583"><ele>468.0</ele><time>2026-04-19T07:55:31.154Z</time></trkpt><trkpt lat="43.8525982" lon="11.9755403"><ele>465.0</ele><time>2026-04-19T07:55:38.077Z</time></trkpt><trkpt lat="43.8516349" lon="11.9754858"><ele>465.0</ele><time>2026-04-19T07:55:45.02Z</time></trkpt><trkpt lat="43.8510941" lon="11.9756949"><ele>472.0</ele><time>2026-04-19T07:55:50.881Z</time></trkpt><trkpt lat="43.848661" lon="11.9726137"><ele>472.0</ele><time>2026-04-19T07:55:58.894Z</time></trkpt><trkpt lat="43.8487834" lon="11.9725964"><ele>472.0</ele><time>2026-04-19T07:56:06.128Z</time></trkpt><trkpt lat="43.8464253" lon="11.9715586"><ele>470.0</ele><time>2026-04-19T07:56:13.191Z</time></trkpt><trkpt lat="43.8461408" lon="11.9710524"><ele>470.5</ele><time>2026-04-19T07:56:29.01Z</time></trkpt><trkpt lat="43.8459007" lon="11.9705749"><ele>471.0</ele><time>2026-04-19T07:56:35.732Z</time></trkpt><trkpt lat="43.8418714" lon="11.9669445"><ele>477.5</ele><time>2026-04-19T07:56:48.893Z</time></trkpt><trkpt lat="43.8418094" lon="11.9667813"><ele>484.0</ele><time>2026-04-19T07:56:57.023Z</time></trkpt><trkpt lat="43.8411163" lon="11.9646846"><ele>487.0</ele><time>2026-04-19T07:57:03.307Z</time></trkpt><trkpt lat="43.8378914" lon="11.9623776"><ele>487.0</ele><time>2026-04-19T07:57:09.4Z</time></trkpt><trkpt lat="43.8380741" lon="11.9624817"><ele>487.0</ele><time>2026-04-19T07:57:15.868Z</time></trkpt><trkpt lat="43.8372055" lon="11.9619186"><ele>489.0</ele><time>2026-04-19T07:57:36.963Z</time></trkpt><trkpt lat="43.8363245" lon="11.960066"><ele>491.0</ele><time>2026-04-19T07:57:45.184Z</time></trkpt><trkpt lat="43.8356269" lon="11.9593769"><ele>495.5</ele><time>2026-04-19T07:57:53.061Z</time></trkpt><trkpt lat="43.8354487" lon="11.9589112"><ele>500.0</ele><time>2026-04-19T07:57:56.384Z</time></trkpt><trkpt lat="43.8344443" lon="11.9583556"><ele>499.0</ele><time>2026-04-19T07:58:06.04Z</time></trkpt><trkpt lat="43.8335553" lon="11.9579774"><ele>502.0</ele><time>2026-04-19T07:58:13.121Z</time></trkpt><trkpt lat="43.8326929" lon="11.9570932"><ele>503.0</ele><time>2026-04-19T07:58:18.964Z</time></trkpt><trkpt lat="43.832066" lon="11.9566082"><ele>496.0</ele><time>2026-04-19T07:58:27.035Z</time></trkpt><trkpt lat="43.8311438" lon="11.9562401"><ele>496.0</ele><time>2026-04-19T07:58:36.012Z</time></trkpt><trkpt lat="43.8307445" lon="11.9556639"><ele>494.0</ele><time>2026-04-19T07:58:42.96Z</time></trkpt><trkpt lat="43.8302156" lon="11.9566213"><ele>495.0</ele><time>2026-04-19T07:58:49.973Z</time></trkpt><trkpt lat="43.8295601" lon="11.9575831"><ele>500.0</ele><time>2026-04-19T07:58:57.04Z</time></trkpt><trkpt lat="43.8280791" lon="11.959106"><ele>501.5</ele><time>2026-04-19T07:59:04.262Z</time></trkpt><trkpt lat="43.8279567" lon="11.959232"><ele>503.0</ele><time>2026-04-19T07:59:12.045Z</time></trkpt><trkpt lat="43.82679" lon="11.958977"><ele>505.0</ele><time>2026-04-19T07:59:16.288Z</time></trkpt><trkpt lat="43.8259945" lon="11.9588453"><ele>505.0</ele><time>2026-04-19T07:59:23.738Z</time></trkpt><trkpt lat="43.8257619" lon="11.9587895"><ele>505.0</ele><time>2026-04-19T07:59:31.753Z</time></trkpt><trkpt lat="43.8266152" lon="11.9588978"><ele>915.0</ele><time>2026-04-19T07:59:39.734Z</time></trkpt><trkpt lat="43.8112021" lon="11.9234741"><ele>950.0</ele><time>2026-04-19T08:06:46.053Z</time></trkpt><trkpt lat="43.8117834" lon="11.9201157"><ele>1079.0</ele><time>2026-04-19T08:07:07.008Z</time></trkpt><trkpt lat="43.7957519" lon="11.8983109"><ele>909.0</ele><time>2026-04-19T08:13:48.036Z</time></trkpt><trkpt lat="43.7954196" lon="11.8828019"><ele>868.0</ele><time>2026-04-19T08:17:11.038Z</time></trkpt><trkpt lat="43.794957" lon="11.8826494"><ele>864.0</ele><time>2026-04-19T08:17:54.003Z</time></trkpt><trkpt lat="43.7940124" lon="11.8838208"><ele>864.0</ele><time>2026-04-19T08:18:00.532Z</time></trkpt><trkpt lat="43.7936573" lon="11.8842605"><ele>839.0</ele><time>2026-04-19T08:18:08.024Z</time></trkpt><trkpt lat="43.7929713" lon="11.8846206"><ele>833.0</ele><time>2026-04-19T08:18:15.061Z</time></trkpt><trkpt lat="43.7928663" lon="11.8851052"><ele>827.0</ele><time>2026-04-19T08:18:22.269Z</time></trkpt><trkpt lat="43.7927144" lon="11.8853102"><ele>817.0</ele><time>2026-04-19T08:18:29.097Z</time></trkpt><trkpt lat="43.792649" lon="11.885404"><ele>807.0</ele><time>2026-04-19T08:18:41.766Z</time></trkpt><trkpt lat="43.7907677" lon="11.8922005"><ele>909.0</ele><time>2026-04-19T08:18:57.034Z</time></trkpt><trkpt lat="43.7842502" lon="11.9013196"><ele>909.0</ele><time>2026-04-19T08:26:43.149Z</time></trkpt><trkpt lat="43.7838178" lon="11.9012475"><ele>909.0</ele><time>2026-04-19T08:26:48.934Z</time></trkpt><trkpt lat="43.7832303" lon="11.9010656"><ele>809.0</ele><time>2026-04-19T08:27:02.963Z</time></trkpt><trkpt lat="43.7796589" lon="11.9078877"><ele>781.0</ele><time>2026-04-19T08:28:15.071Z</time></trkpt><trkpt lat="43.7712569" lon="11.9179409"><ele>767.0</ele><time>2026-04-19T08:29:38.055Z</time></trkpt><trkpt lat="43.7703718" lon="11.9185806"><ele>763.5</ele><time>2026-04-19T08:29:45.106Z</time></trkpt><trkpt lat="43.7701343" lon="11.9187488"><ele>760.0</ele><time>2026-04-19T08:29:52.114Z</time></trkpt><trkpt lat="43.7696715" lon="11.9184298"><ele>757.0</ele><time>2026-04-19T08:29:59.168Z</time></trkpt><trkpt lat="43.7694944" lon="11.9183173"><ele>754.0</ele><time>2026-04-19T08:30:06.08Z</time></trkpt><trkpt lat="43.762443" lon="11.9189639"><ele>549.0</ele><time>2026-04-19T08:32:19.994Z</time></trkpt><trkpt lat="43.747339" lon="11.9249065"><ele>545.0</ele><time>2026-04-19T08:34:19.031Z</time></trkpt><trkpt lat="43.7469026" lon="11.923992"><ele>543.5</ele><time>2026-04-19T08:34:39.035Z</time></trkpt><trkpt lat="43.7465264" lon="11.923971"><ele>542.0</ele><time>2026-04-19T08:34:47.009Z</time></trkpt><trkpt lat="43.7452971" lon="11.9323565"><ele>574.0</ele><time>2026-04-19T08:35:30.025Z</time></trkpt><trkpt lat="43.744196" lon="11.9354651"><ele>816.0</ele><time>2026-04-19T08:35:44.066Z</time></trkpt><trkpt lat="43.7286443" lon="11.9589922"><ele>1036.0</ele><time>2026-04-19T08:39:37.007Z</time></trkpt><trkpt lat="43.7057785" lon="11.9259197"><ele>1143.0</ele><time>2026-04-19T08:45:59.819Z</time></trkpt><trkpt lat="43.7070115" lon="11.9303224"><ele>1143.0</ele><time>2026-04-19T08:46:29.031Z</time></trkpt><trkpt lat="43.7070165" lon="11.9305464"><ele>1143.0</ele><time>2026-04-19T08:46:35.302Z</time></trkpt><trkpt lat="43.7014952" lon="11.9315727"><ele>976.0</ele><time>2026-04-19T08:47:03.037Z</time></trkpt><trkpt lat="43.7008803" lon="11.932073"><ele>972.0</ele><time>2026-04-19T08:47:10.112Z</time></trkpt><trkpt lat="43.7008053" lon="11.9327828"><ele>976.0</ele><time>2026-04-19T08:47:16.745Z</time></trkpt><trkpt lat="43.7003377" lon="11.9339705"><ele>970.0</ele><time>2026-04-19T08:47:23.035Z</time></trkpt><trkpt lat="43.6997604" lon="11.9348627"><ele>962.0</ele><time>2026-04-19T08:47:29.828Z</time></trkpt><trkpt lat="43.6992974" lon="11.9355609"><ele>980.0</ele><time>2026-04-19T08:47:38.322Z</time></trkpt><trkpt lat="43.6989714" lon="11.9362065"><ele>975.0</ele><time>2026-04-19T08:47:45.053Z</time></trkpt><trkpt lat="43.6985721" lon="11.9369027"><ele>957.0</ele><time>2026-04-19T08:47:53.08Z</time></trkpt><trkpt lat="43.7015825" lon="11.9495879"><ele>934.0</ele><time>2026-04-19T08:48:13.464Z</time></trkpt><trkpt lat="43.6996965" lon="11.9475779"><ele>1038.0</ele><time>2026-04-19T08:49:08.77Z</time></trkpt><trkpt lat="43.7000249" lon="11.9587388"><ele>886.0</ele><time>2026-04-19T08:50:21.083Z</time></trkpt><trkpt lat="43.700808" lon="11.9771183"><ele>845.0</ele><time>2026-04-19T08:52:24.021Z</time></trkpt><trkpt lat="43.6963208" lon="11.9868787"><ele>845.0</ele><time>2026-04-19T08:54:15.333Z</time></trkpt><trkpt lat="43.6962138" lon="11.9871135"><ele>845.0</ele><time>2026-04-19T08:54:23.112Z</time></trkpt><trkpt lat="43.6972624" lon="11.9877331"><ele>476.0</ele><time>2026-04-19T08:54:35.772Z</time></trkpt><trkpt lat="43.6716595" lon="12.0309789"><ele>441.0</ele><time>2026-04-19T08:59:40.097Z</time></trkpt><trkpt lat="43.6715764" lon="12.0371748"><ele>436.0</ele><time>2026-04-19T09:00:30.11Z</time></trkpt><trkpt lat="43.6714347" lon="12.0385659"><ele>439.0</ele><time>2026-04-19T09:00:50.188Z</time></trkpt><trkpt lat="43.6691569" lon="12.0398854"><ele>435.0</ele><time>2026-04-19T09:00:57.654Z</time></trkpt><trkpt lat="43.6705005" lon="12.0402572"><ele>437.0</ele><time>2026-04-19T09:01:10.865Z</time></trkpt><trkpt lat="43.6695559" lon="12.0404154"><ele>435.0</ele><time>2026-04-19T09:01:25.161Z</time></trkpt><trkpt lat="43.6690257" lon="12.0409231"><ele>436.0</ele><time>2026-04-19T09:01:32.056Z</time></trkpt><trkpt lat="43.6684545" lon="12.0411529"><ele>432.0</ele><time>2026-04-19T09:01:39.019Z</time></trkpt><trkpt lat="43.667654" lon="12.0416937"><ele>429.0</ele><time>2026-04-19T09:01:47.285Z</time></trkpt><trkpt lat="43.6674816" lon="12.0427802"><ele>430.0</ele><time>2026-04-19T09:01:54.094Z</time></trkpt><trkpt lat="43.6673662" lon="12.0435082"><ele>433.0</ele><time>2026-04-19T09:02:00.422Z</time></trkpt><trkpt lat="43.6665655" lon="12.0446424"><ele>435.0</ele><time>2026-04-19T09:02:07.29Z</time></trkpt><trkpt lat="43.6660491" lon="12.0453577"><ele>436.0</ele><time>2026-04-19T09:02:14.173Z</time></trkpt><trkpt lat="43.6657226" lon="12.0460168"><ele>442.0</ele><time>2026-04-19T09:02:22.13Z</time></trkpt><trkpt lat="43.6648693" lon="12.0468023"><ele>447.0</ele><time>2026-04-19T09:02:29.077Z</time></trkpt><trkpt lat="43.6639503" lon="12.0477664"><ele>447.0</ele><time>2026-04-19T09:02:35.235Z</time></trkpt><trkpt lat="43.6637179" lon="12.0477951"><ele>447.0</ele><time>2026-04-19T09:02:44.161Z</time></trkpt><trkpt lat="43.6630981" lon="12.0496044"><ele>431.0</ele><time>2026-04-19T09:02:50.269Z</time></trkpt><trkpt lat="43.6627303" lon="12.0504918"><ele>422.0</ele><time>2026-04-19T09:02:57.331Z</time></trkpt><trkpt lat="43.6617252" lon="12.0511209"><ele>429.0</ele><time>2026-04-19T09:03:04.294Z</time></trkpt><trkpt lat="43.6624944" lon="12.0512666"><ele>429.0</ele><time>2026-04-19T09:03:11.259Z</time></trkpt><trkpt lat="43.6626462" lon="12.0515544"><ele>429.0</ele><time>2026-04-19T09:03:19.12Z</time></trkpt><trkpt lat="43.6563269" lon="12.0535998"><ele>418.0</ele><time>2026-04-19T09:03:33.006Z</time></trkpt><trkpt lat="43.6552109" lon="12.053609"><ele>415.0</ele><time>2026-04-19T09:03:41.211Z</time></trkpt><trkpt lat="43.6543145" lon="12.0538295"><ele>415.0</ele><time>2026-04-19T09:03:47.973Z</time></trkpt><trkpt lat="43.6540046" lon="12.0539223"><ele>415.0</ele><time>2026-04-19T09:03:56.042Z</time></trkpt><trkpt lat="43.6467229" lon="12.0531044"><ele>404.0</ele><time>2026-04-19T09:04:35.998Z</time></trkpt><trkpt lat="43.6289876" lon="12.0650879"><ele>414.0</ele><time>2026-04-19T09:06:38.98Z</time></trkpt><trkpt lat="43.6043796" lon="12.043891"><ele>415.0</ele><time>2026-04-19T09:12:19.992Z</time></trkpt><trkpt lat="43.5905848" lon="12.0474036"><ele>357.0</ele><time>2026-04-19T09:13:03.04Z</time></trkpt><trkpt lat="43.5775979" lon="12.0358116"><ele>361.0</ele><time>2026-04-19T09:15:51.002Z</time></trkpt><trkpt lat="43.5763978" lon="12.0360387"><ele>360.0</ele><time>2026-04-19T09:15:58.059Z</time></trkpt><trkpt lat="43.5758789" lon="12.0367125"><ele>360.0</ele><time>2026-04-19T09:16:03.817Z</time></trkpt><trkpt lat="43.5748394" lon="12.0378012"><ele>360.0</ele><time>2026-04-19T09:16:12.143Z</time></trkpt><trkpt lat="43.57459" lon="12.0375274"><ele>360.0</ele><time>2026-04-19T09:16:19.162Z</time></trkpt><trkpt lat="43.573934" lon="12.0378524"><ele>362.0</ele><time>2026-04-19T09:16:26.032Z</time></trkpt><trkpt lat="43.5726662" lon="12.0377229"><ele>366.0</ele><time>2026-04-19T09:16:32.01Z</time></trkpt><trkpt lat="43.5714224" lon="12.0382817"><ele>366.0</ele><time>2026-04-19T09:16:39.784Z</time></trkpt><trkpt lat="43.5701052" lon="12.0378313"><ele>379.0</ele><time>2026-04-19T09:16:47.169Z</time></trkpt><trkpt lat="43.5694006" lon="12.0372259"><ele>363.0</ele><time>2026-04-19T09:16:52.758Z</time></trkpt><trkpt lat="43.5667234" lon="12.0405289"><ele>378.0</ele><time>2026-04-19T09:17:08.054Z</time></trkpt><trkpt lat="43.562375" lon="12.0432939"><ele>346.0</ele><time>2026-04-19T09:17:15.039Z</time></trkpt><trkpt lat="43.5640303" lon="12.0436129"><ele>350.0</ele><time>2026-04-19T09:17:36.064Z</time></trkpt><trkpt lat="43.5636225" lon="12.0441996"><ele>349.0</ele><time>2026-04-19T09:17:41.766Z</time></trkpt><trkpt lat="43.5612017" lon="12.0470045"><ele>357.0</ele><time>2026-04-19T09:17:50.036Z</time></trkpt><trkpt lat="43.5602674" lon="12.0472668"><ele>350.0</ele><time>2026-04-19T09:17:57.126Z</time></trkpt><trkpt lat="43.5608091" lon="12.0479516"><ele>350.0</ele><time>2026-04-19T09:18:04.098Z</time></trkpt><trkpt lat="43.5609898" lon="12.0481897"><ele>350.0</ele><time>2026-04-19T09:18:10.765Z</time></trkpt><trkpt lat="43.5573927" lon="12.0500577"><ele>356.0</ele><time>2026-04-19T09:18:19.013Z</time></trkpt><trkpt lat="43.5546858" lon="12.0501925"><ele>356.0</ele><time>2026-04-19T09:18:26.079Z</time></trkpt><trkpt lat="43.5546053" lon="12.050315"><ele>356.0</ele><time>2026-04-19T09:18:33.126Z</time></trkpt><trkpt lat="43.5496585" lon="12.0536564"><ele>360.0</ele><time>2026-04-19T09:19:01.153Z</time></trkpt><trkpt lat="43.5492405" lon="12.05371"><ele>364.0</ele><time>2026-04-19T09:19:08.07Z</time></trkpt><trkpt lat="43.5481276" lon="12.0539351"><ele>367.0</ele><time>2026-04-19T09:19:15.129Z</time></trkpt><trkpt lat="43.5464205" lon="12.055314"><ele>393.0</ele><time>2026-04-19T09:19:22.148Z</time></trkpt><trkpt lat="43.5453014" lon="12.0557609"><ele>407.0</ele><time>2026-04-19T09:19:28.008Z</time></trkpt><trkpt lat="43.5438514" lon="12.0565529"><ele>404.5</ele><time>2026-04-19T09:19:36.111Z</time></trkpt><trkpt lat="43.5435398" lon="12.0567447"><ele>402.0</ele><time>2026-04-19T09:19:42.038Z</time></trkpt><trkpt lat="43.5430361" lon="12.0566792"><ele>408.0</ele><time>2026-04-19T09:19:50.157Z</time></trkpt><trkpt lat="43.5418106" lon="12.0557306"><ele>408.0</ele><time>2026-04-19T09:19:56.1Z</time></trkpt><trkpt lat="43.5418882" lon="12.0556188"><ele>408.0</ele><time>2026-04-19T09:20:10.036Z</time></trkpt><trkpt lat="43.5420503" lon="12.0555467"><ele>408.0</ele><time>2026-04-19T09:20:16.995Z</time></trkpt><trkpt lat="43.5423074" lon="12.0558342"><ele>408.0</ele><time>2026-04-19T09:20:23.953Z</time></trkpt><trkpt lat="43.5425942" lon="12.0560903"><ele>408.0</ele><time>2026-04-19T09:20:32.254Z</time></trkpt><trkpt lat="43.5434872" lon="12.0561153"><ele>413.0</ele><time>2026-04-19T09:20:39.227Z</time></trkpt><trkpt lat="43.5436266" lon="12.0561069"><ele>418.0</ele><time>2026-04-19T09:20:46.053Z</time></trkpt><trkpt lat="43.5408961" lon="12.0558073"><ele>438.0</ele><time>2026-04-19T09:21:07.064Z</time></trkpt><trkpt lat="43.5421681" lon="12.0535788"><ele>448.0</ele><time>2026-04-19T09:21:21.32Z</time></trkpt><trkpt lat="43.5418882" lon="12.053062"><ele>447.0</ele><time>2026-04-19T09:21:29.179Z</time></trkpt><trkpt lat="43.5409158" lon="12.0517474"><ele>449.0</ele><time>2026-04-19T09:21:35.017Z</time></trkpt><trkpt lat="43.5406044" lon="12.0512691"><ele>440.0</ele><time>2026-04-19T09:21:41.854Z</time></trkpt><trkpt lat="43.5401642" lon="12.0520638"><ele>440.0</ele><time>2026-04-19T09:21:50.269Z</time></trkpt><trkpt lat="43.5398428" lon="12.0522374"><ele>440.0</ele><time>2026-04-19T09:21:57.216Z</time></trkpt><trkpt lat="43.5395972" lon="12.0523501"><ele>445.0</ele><time>2026-04-19T09:22:04.048Z</time></trkpt><trkpt lat="43.539136" lon="12.0532248"><ele>450.0</ele><time>2026-04-19T09:22:11.162Z</time></trkpt><trkpt lat="43.5383892" lon="12.0541597"><ele>444.0</ele><time>2026-04-19T09:22:18.165Z</time></trkpt><trkpt lat="43.5376687" lon="12.0553363"><ele>443.0</ele><time>2026-04-19T09:22:24.256Z</time></trkpt><trkpt lat="43.5369471" lon="12.0563517"><ele>440.0</ele><time>2026-04-19T09:22:31.343Z</time></trkpt><trkpt lat="43.5358917" lon="12.0558836"><ele>435.0</ele><time>2026-04-19T09:22:37.922Z</time></trkpt><trkpt lat="43.534702" lon="12.0561497"><ele>425.0</ele><time>2026-04-19T09:22:45.664Z</time></trkpt><trkpt lat="43.5338164" lon="12.0562835"><ele>416.0</ele><time>2026-04-19T09:22:52.224Z</time></trkpt><trkpt lat="43.5314951" lon="12.05794"><ele>394.0</ele><time>2026-04-19T09:23:06.035Z</time></trkpt><trkpt lat="43.5259315" lon="12.0667145"><ele>397.0</ele><time>2026-04-19T09:23:48.017Z</time></trkpt><trkpt lat="43.5261333" lon="12.0678221"><ele>391.0</ele><time>2026-04-19T09:23:55.037Z</time></trkpt><trkpt lat="43.5239724" lon="12.0690398"><ele>356.0</ele><time>2026-04-19T09:24:02.04Z</time></trkpt><trkpt lat="43.5184314" lon="12.0775976"><ele>339.0</ele><time>2026-04-19T09:24:44.058Z</time></trkpt><trkpt lat="43.5139666" lon="12.0818697"><ele>329.0</ele><time>2026-04-19T09:25:20.1Z</time></trkpt><trkpt lat="43.5127704" lon="12.0821941"><ele>358.0</ele><time>2026-04-19T09:26:33.075Z</time></trkpt><trkpt lat="43.5232822" lon="12.0795781"><ele>318.0</ele><time>2026-04-19T09:30:50.974Z</time></trkpt><trkpt lat="43.5323331" lon="12.0906299"><ele>319.0</ele><time>2026-04-19T09:31:52.932Z</time></trkpt><trkpt lat="43.5319359" lon="12.0893887"><ele>320.0</ele><time>2026-04-19T09:31:58.072Z</time></trkpt><trkpt lat="43.5331227" lon="12.0883925"><ele>319.0</ele><time>2026-04-19T09:32:05.089Z</time></trkpt><trkpt lat="43.5332293" lon="12.0897511"><ele>319.0</ele><time>2026-04-19T09:32:12.066Z</time></trkpt><trkpt lat="43.5330335" lon="12.0906955"><ele>321.0</ele><time>2026-04-19T09:32:19.13Z</time></trkpt><trkpt lat="43.5333813" lon="12.0911136"><ele>321.0</ele><time>2026-04-19T09:32:27.161Z</time></trkpt><trkpt lat="43.5336685" lon="12.0915783"><ele>321.0</ele><time>2026-04-19T09:32:34.169Z</time></trkpt><trkpt lat="43.5345307" lon="12.0917658"><ele>318.0</ele><time>2026-04-19T09:32:40.586Z</time></trkpt><trkpt lat="43.5350613" lon="12.0922775"><ele>311.0</ele><time>2026-04-19T09:32:48.034Z</time></trkpt><trkpt lat="43.5357194" lon="12.0930971"><ele>310.0</ele><time>2026-04-19T09:32:54.965Z</time></trkpt><trkpt lat="43.5364378" lon="12.096195"><ele>310.0</ele><time>2026-04-19T09:33:02.044Z</time></trkpt><trkpt lat="43.5374802" lon="12.0971259"><ele>309.0</ele><time>2026-04-19T09:33:08.991Z</time></trkpt><trkpt lat="43.5388892" lon="12.0977053"><ele>309.0</ele><time>2026-04-19T09:33:15.103Z</time></trkpt><trkpt lat="43.5397094" lon="12.0983925"><ele>309.0</ele><time>2026-04-19T09:33:21.945Z</time></trkpt><trkpt lat="43.540031" lon="12.0986482"><ele>309.0</ele><time>2026-04-19T09:33:28.739Z</time></trkpt><trkpt lat="43.5489501" lon="12.1047819"><ele>307.0</ele><time>2026-04-19T09:34:05.129Z</time></trkpt><trkpt lat="43.5492132" lon="12.1035195"><ele>308.0</ele><time>2026-04-19T09:34:19.099Z</time></trkpt><trkpt lat="43.5507396" lon="12.1042289"><ele>309.0</ele><time>2026-04-19T09:34:24.935Z</time></trkpt><trkpt lat="43.5514854" lon="12.1045059"><ele>310.0</ele><time>2026-04-19T09:34:31.736Z</time></trkpt><trkpt lat="43.5546555" lon="12.1112736"><ele>311.0</ele><time>2026-04-19T09:34:38.963Z</time></trkpt><trkpt lat="43.5572542" lon="12.1102534"><ele>311.0</ele><time>2026-04-19T09:34:47.155Z</time></trkpt><trkpt lat="43.5554332" lon="12.1076308"><ele>311.0</ele><time>2026-04-19T09:34:54.191Z</time></trkpt><trkpt lat="43.555363" lon="12.1076855"><ele>311.0</ele><time>2026-04-19T09:34:58.884Z</time></trkpt><trkpt lat="43.5564188" lon="12.1099819"><ele>311.0</ele><time>2026-04-19T09:35:07.141Z</time></trkpt><trkpt lat="43.5571841" lon="12.1102903"><ele>311.0</ele><time>2026-04-19T09:35:14.178Z</time></trkpt><trkpt lat="43.5573572" lon="12.1103473"><ele>311.0</ele><time>2026-04-19T09:35:22.179Z</time></trkpt><trkpt lat="43.5588047" lon="12.1121465"><ele>311.5</ele><time>2026-04-19T09:35:28.195Z</time></trkpt><trkpt lat="43.5591435" lon="12.1125136"><ele>312.0</ele><time>2026-04-19T09:35:34.789Z</time></trkpt><trkpt lat="43.5596602" lon="12.1132253"><ele>310.0</ele><time>2026-04-19T09:35:41.775Z</time></trkpt><trkpt lat="43.5598396" lon="12.1142449"><ele>308.0</ele><time>2026-04-19T09:35:48.909Z</time></trkpt><trkpt lat="43.5607906" lon="12.1157192"><ele>308.0</ele><time>2026-04-19T09:35:56.183Z</time></trkpt><trkpt lat="43.5611881" lon="12.1159416"><ele>308.0</ele><time>2026-04-19T09:36:04.014Z</time></trkpt><trkpt lat="43.5613122" lon="12.1161877"><ele>312.0</ele><time>2026-04-19T09:36:09.495Z</time></trkpt><trkpt lat="43.5622269" lon="12.1173831"><ele>311.0</ele><time>2026-04-19T09:36:17.073Z</time></trkpt><trkpt lat="43.5624152" lon="12.1176371"><ele>310.0</ele><time>2026-04-19T09:36:18.339Z</time></trkpt><trkpt lat="43.5638486" lon="12.1184319"><ele>310.0</ele><time>2026-04-19T09:36:29.081Z</time></trkpt><trkpt lat="43.5644574" lon="12.1195156"><ele>309.0</ele><time>2026-04-19T09:36:36.123Z</time></trkpt><trkpt lat="43.5649811" lon="12.1202673"><ele>309.0</ele><time>2026-04-19T09:36:43.02Z</time></trkpt><trkpt lat="43.5665803" lon="12.1211891"><ele>308.0</ele><time>2026-04-19T09:36:50.185Z</time></trkpt><trkpt lat="43.5671" lon="12.1214525"><ele>311.0</ele><time>2026-04-19T09:36:56.59Z</time></trkpt><trkpt lat="43.5680089" lon="12.1215087"><ele>311.0</ele><time>2026-04-19T09:37:03.552Z</time></trkpt><trkpt lat="43.5680907" lon="12.1216154"><ele>311.0</ele><time>2026-04-19T09:37:11.06Z</time></trkpt><trkpt lat="43.5687763" lon="12.1246377"><ele>311.0</ele><time>2026-04-19T09:37:18.09Z</time></trkpt><trkpt lat="43.5680317" lon="12.1214882"><ele>308.0</ele><time>2026-04-19T09:37:25.145Z</time></trkpt><trkpt lat="43.5672612" lon="12.1213595"><ele>312.0</ele><time>2026-04-19T09:37:31.587Z</time></trkpt><trkpt lat="43.5694578" lon="12.1233466"><ele>313.0</ele><time>2026-04-19T09:37:38.652Z</time></trkpt><trkpt lat="43.5688176" lon="12.1245839"><ele>312.0</ele><time>2026-04-19T09:38:03.162Z</time></trkpt><trkpt lat="43.5690182" lon="12.1239315"><ele>312.0</ele><time>2026-04-19T09:38:09.559Z</time></trkpt><trkpt lat="43.5691492" lon="12.1238331"><ele>312.0</ele><time>2026-04-19T09:38:15.414Z</time></trkpt><trkpt lat="43.5695136" lon="12.1232993"><ele>312.0</ele><time>2026-04-19T09:38:34.665Z</time></trkpt><trkpt lat="43.5691883" lon="12.1237129"><ele>312.0</ele><time>2026-04-19T09:38:47.465Z</time></trkpt><trkpt lat="43.5689175" lon="12.1240068"><ele>312.0</ele><time>2026-04-19T09:38:54.333Z</time></trkpt><trkpt lat="43.5689863" lon="12.1239643"><ele>312.0</ele><time>2026-04-19T09:39:07.127Z</time></trkpt><trkpt lat="43.5694972" lon="12.123215"><ele>312.0</ele><time>2026-04-19T09:40:46.784Z</time></trkpt><trkpt lat="43.5690223" lon="12.1239263"><ele>312.0</ele><time>2026-04-19T09:41:07.051Z</time></trkpt><trkpt lat="43.5693826" lon="12.1233889"><ele>312.0</ele><time>2026-04-19T09:43:32.644Z</time></trkpt><trkpt lat="43.5689614" lon="12.1239998"><ele>312.0</ele><time>2026-04-19T09:43:45.547Z</time></trkpt><trkpt lat="43.5693495" lon="12.1234426"><ele>312.0</ele><time>2026-04-19T09:44:11.442Z</time></trkpt><trkpt lat="43.5689846" lon="12.1239731"><ele>312.0</ele><time>2026-04-19T09:44:17.404Z</time></trkpt><trkpt lat="43.5689368" lon="12.1241116"><ele>312.0</ele><time>2026-04-19T09:44:20.735Z</time></trkpt><trkpt lat="43.5689939" lon="12.1239757"><ele>312.0</ele><time>2026-04-19T09:44:29.371Z</time></trkpt><trkpt lat="43.5698959" lon="12.1237637"><ele>312.0</ele><time>2026-04-19T09:44:35.827Z</time></trkpt><trkpt lat="43.5689205" lon="12.1240313"><ele>316.0</ele><time>2026-04-19T09:44:54.78Z</time></trkpt><trkpt lat="43.5696067" lon="12.1230502"><ele>316.0</ele><time>2026-04-19T09:45:40.511Z</time></trkpt><trkpt lat="43.5696943" lon="12.123445"><ele>316.0</ele><time>2026-04-19T09:45:52.944Z</time></trkpt><trkpt lat="43.5689014" lon="12.1240485"><ele>312.0</ele><time>2026-04-19T09:45:59.396Z</time></trkpt></trkseg></trk></gpx>